createdAt,value
2019-04-22T00:01:50.289Z,93.70
2019-04-22T00:04:33.811Z,94.50
2019-04-22T00:07:17.447Z,94.40
2019-04-22T00:09:46.117Z,94.60
2019-04-22T00:12:19.515Z,94.70
2019-04-22T00:14:42.103Z,95.00
2019-04-22T00:17:25.100Z,95.20
2019-04-22T00:19:55.505Z,95.60
2019-04-22T00:22:26.135Z,96.00
2019-04-22T00:24:51.268Z,96.00
2019-04-22T00:27:29.409Z,96.10
2019-04-22T00:30:13.767Z,96.20
2019-04-22T00:32:39.773Z,96.10
2019-04-22T00:35:05.993Z,96.10
2019-04-22T00:37:49.241Z,96.20
2019-04-22T00:40:09.107Z,96.30
2019-04-22T00:42:45.636Z,96.50
2019-04-22T00:45:13.088Z,96.70
2019-04-22T00:47:41.121Z,96.50
2019-04-22T00:50:20.352Z,96.40
2019-04-22T00:52:43.725Z,96.70
2019-04-22T00:55:16.369Z,96.70
2019-04-22T00:57:41.537Z,96.70
2019-04-22T01:00:23.019Z,97.00
2019-04-22T01:02:47.710Z,96.90
2019-04-22T01:05:22.055Z,97.00
2019-04-22T01:07:42.962Z,97.00
2019-04-22T01:10:20.627Z,97.30
2019-04-22T01:15:23.328Z,97.40
2019-04-22T01:17:52.480Z,97.30
2019-04-22T01:20:52.381Z,97.30
2019-04-22T01:22:46.167Z,97.30
2019-04-22T01:25:18.906Z,97.50
2019-04-22T01:27:44.637Z,97.50
2019-04-22T01:30:10.950Z,97.50
2019-04-22T01:32:52.067Z,97.60
2019-04-22T01:35:34.874Z,97.50
2019-04-22T01:38:07.786Z,97.90
2019-04-22T01:40:46.854Z,98.00
2019-04-22T01:43:16.862Z,98.00
2019-04-22T01:45:49.800Z,98.10
2019-04-22T01:48:17.613Z,98.00
2019-04-22T01:50:49.678Z,98.30
2019-04-22T01:53:24.560Z,98.40
2019-04-22T01:55:55.075Z,98.50
2019-04-22T01:58:17.145Z,98.60
2019-04-22T02:00:56.131Z,98.90
2019-04-22T02:03:26.467Z,98.80
2019-04-22T02:05:59.226Z,98.90
2019-04-22T02:08:33.362Z,99.20
2019-04-22T02:10:54.947Z,99.30
2019-04-22T02:13:31.914Z,99.40
2019-04-22T02:16:00.259Z,99.60
2019-04-22T02:18:35.890Z,99.70
2019-04-22T02:20:54.539Z,99.80
2019-04-22T02:41:41.544Z,99.90
2019-04-22T02:46:45.135Z,99.90
2019-04-22T02:49:11.622Z,99.90
2019-04-22T02:51:32.784Z,99.90
2019-04-22T02:56:36.021Z,99.90
2019-04-22T02:59:12.403Z,99.90
2019-04-22T03:02:09.328Z,99.90
2019-04-22T03:04:09.386Z,99.90
2019-04-22T03:06:42.203Z,99.90
2019-04-22T03:09:16.361Z,99.90
2019-04-22T03:12:02.520Z,99.90
2019-04-22T03:29:10.606Z,99.90
2019-04-22T03:35:13.361Z,99.90
2019-04-22T03:39:38.120Z,99.90
2019-04-22T03:42:05.706Z,99.90
2019-04-22T03:44:30.986Z,99.90
2019-04-22T04:04:43.211Z,99.90
2019-04-22T04:12:14.279Z,99.90
2019-04-22T04:14:47.178Z,99.90
2019-04-22T04:20:05.750Z,99.90
2019-04-22T04:22:27.004Z,99.90
2019-04-22T04:27:49.117Z,99.90
2019-04-22T04:29:56.116Z,99.90
2019-04-22T04:32:27.398Z,99.90
2019-04-22T04:35:07.280Z,99.90
2019-04-22T04:37:38.767Z,99.90
2019-04-22T04:39:59.777Z,99.90
2019-04-22T04:42:33.279Z,99.90
2019-04-22T04:45:10.972Z,99.90
2019-04-22T04:47:35.723Z,99.90
2019-04-22T04:49:54.417Z,99.90
2019-04-22T04:54:59.440Z,99.90
2019-04-22T04:57:43.464Z,99.90
2019-04-22T05:02:33.105Z,99.90
2019-04-22T05:05:12.106Z,99.90
